Poplar Springs, Mississippi
Current Conditions -  °F | °C
As of 5:53 AM on Thursday 23 Oct 2014 (Local Time) from KGWO Reporting Station
Haze Haze  
Wind Chill: 40°   Ceiling: Unl
Heat Index: 40°   Visibility: 4mi
Dew Point: 39°   Wind: 0mph
Humidity: 97%   Direction: NA
Pressure: 30.17"   Gusts: NA
Location:  33.3807°N, 89.5554°W
Report Text: KGWO 231053Z AUTO 00000KT 4SM BR CLR 04/04 A3017 RMK AO2 SLP216 T00440039 TSNO $
Loading
Personal Weather Stations






























Interactive Weather Map
Tropical Storm Tracking
New forecast layout! Learn more

10-Day Weather Forecast

Advertisements
Track Severe Weather on mobile